Time;durP1;ratioP1;P1;durP2;ratioP2;P2;SDS_P1;SDS_P2;PMS_P1;PMS_P2;Temp;Humidity;BMP_temperature;BMP_pressure;BME280_temperature;BME280_humidity;BME280_pressure;Samples;Min_cycle;Max_cycle;Signal;HPM_P1;HPM_P2
2021/06/27 00:00:37;;;;;;;9.50;6.90;;;18.70;99.90;;;;;;4439871;32;20198;-67
2021/06/27 00:03:06;;;;;;;9.33;6.90;;;18.60;99.90;;;;;;4441251;32;20182;-67
2021/06/27 00:05:34;;;;;;;8.83;6.93;;;18.60;99.90;;;;;;4439903;32;20170;-68
2021/06/27 00:08:01;;;;;;;9.00;7.00;;;18.60;99.90;;;;;;4439236;32;20200;-68
2021/06/27 00:10:33;;;;;;;10.10;6.97;;;18.60;99.90;;;;;;4439495;32;20143;-67
2021/06/27 00:13:02;;;;;;;10.93;7.13;;;18.60;99.90;;;;;;4441257;32;20170;-67
2021/06/27 00:15:39;;;;;;;11.67;7.17;;;18.60;99.90;;;;;;4441132;32;20167;-67
2021/06/27 00:18:08;;;;;;;10.77;7.10;;;18.50;99.90;;;;;;4441127;32;20138;-67
2021/06/27 00:20:37;;;;;;;12.93;7.13;;;18.50;99.90;;;;;;4439054;32;20188;-67
2021/06/27 00:23:05;;;;;;;8.20;6.70;;;18.50;99.90;;;;;;4439558;32;20490;-67
2021/06/27 00:25:33;;;;;;;9.13;6.90;;;18.40;99.90;;;;;;4439614;32;20135;-68
2021/06/27 00:28:01;;;;;;;8.87;6.57;;;18.40;99.90;;;;;;4441054;32;20414;-67
2021/06/27 00:30:28;;;;;;;11.73;7.50;;;18.40;99.90;;;;;;4441063;32;20142;-67
2021/06/27 00:32:57;;;;;;;10.57;7.80;;;18.30;99.90;;;;;;4427271;32;20412;-67
2021/06/27 00:35:25;;;;;;;9.07;6.83;;;18.30;99.90;;;;;;4439470;32;20191;-66
2021/06/27 00:37:53;;;;;;;8.90;7.00;;;18.30;99.90;;;;;;4440546;32;20135;-67
2021/06/27 00:40:22;;;;;;;9.30;7.20;;;18.20;99.90;;;;;;4440893;32;20143;-67
2021/06/27 00:42:51;;;;;;;11.03;7.87;;;18.10;99.90;;;;;;4439301;32;20143;-66
2021/06/27 00:45:20;;;;;;;10.60;7.63;;;18.00;99.90;;;;;;4440098;32;20154;-67
2021/06/27 00:47:48;;;;;;;9.63;7.00;;;18.00;99.90;;;;;;4439389;32;20149;-67
2021/06/27 00:50:24;;;;;;;9.63;7.80;;;17.90;99.90;;;;;;4439131;32;20203;-67
2021/06/27 00:52:51;;;;;;;9.37;7.63;;;17.90;99.90;;;;;;4439372;32;20166;-67
2021/06/27 00:55:19;;;;;;;10.33;7.90;;;17.80;99.90;;;;;;4439308;32;20147;-68
2021/06/27 00:57:47;;;;;;;9.50;7.57;;;17.80;99.90;;;;;;4440781;32;20138;-68
2021/06/27 01:00:18;;;;;;;10.17;7.33;;;17.80;99.90;;;;;;4440700;32;20160;-67
2021/06/27 01:02:46;;;;;;;9.87;7.40;;;17.70;99.90;;;;;;4440881;32;20185;-67
2021/06/27 01:05:25;;;;;;;10.53;7.20;;;17.70;99.90;;;;;;4439240;32;20188;-67
2021/06/27 01:07:53;;;;;;;10.17;7.60;;;17.80;99.90;;;;;;4440683;32;20160;-67
2021/06/27 01:10:21;;;;;;;10.57;7.47;;;17.80;99.90;;;;;;4440645;32;20162;-67
2021/06/27 01:12:47;;;;;;;10.67;7.83;;;17.70;99.90;;;;;;4439077;32;20142;-67
2021/06/27 01:15:16;;;;;;;9.93;8.10;;;17.70;99.90;;;;;;4439124;32;20165;-67
2021/06/27 01:17:46;;;;;;;11.27;8.13;;;17.70;99.90;;;;;;4439050;32;20180;-67
2021/06/27 01:20:26;;;;;;;9.57;7.10;;;17.60;99.90;;;;;;4440552;32;20242;-67
2021/06/27 01:22:55;;;;;;;10.33;7.57;;;17.70;99.90;;;;;;4441700;32;20146;-68
2021/06/27 01:25:24;;;;;;;12.23;8.03;;;17.60;99.90;;;;;;4441777;32;20147;-68
2021/06/27 01:27:53;;;;;;;11.70;7.77;;;17.60;99.90;;;;;;4443807;32;20169;-68
2021/06/27 01:30:21;;;;;;;11.50;7.90;;;17.60;99.90;;;;;;4441933;32;20143;-68
2021/06/27 01:32:51;;;;;;;9.73;7.47;;;17.60;99.90;;;;;;4443546;32;20139;-68
2021/06/27 01:35:20;;;;;;;10.93;7.87;;;17.60;99.90;;;;;;4443618;32;20146;-68
2021/06/27 01:37:51;;;;;;;11.10;7.93;;;17.50;99.90;;;;;;4443235;32;20459;-68
2021/06/27 01:40:20;;;;;;;10.57;7.97;;;17.40;99.90;;;;;;4441774;32;20432;-68
2021/06/27 01:42:48;;;;;;;10.90;7.83;;;17.40;99.90;;;;;;4441701;32;20192;-67
2021/06/27 01:45:22;;;;;;;10.53;7.53;;;17.40;99.90;;;;;;4441658;32;20166;-67
2021/06/27 01:47:57;;;;;;;11.03;7.93;;;17.30;99.90;;;;;;4443102;32;20141;-67
2021/06/27 01:50:25;;;;;;;10.67;8.23;;;17.30;99.90;;;;;;4442990;32;20161;-67
2021/06/27 01:52:53;;;;;;;11.27;8.30;;;17.30;99.90;;;;;;4443282;32;20150;-67
2021/06/27 01:55:20;;;;;;;12.23;8.50;;;17.30;99.90;;;;;;4442916;32;21516;-67
2021/06/27 01:57:47;;;;;;;10.73;8.00;;;17.20;99.90;;;;;;4442995;32;20154;-67
2021/06/27 02:00:14;;;;;;;11.97;8.40;;;17.30;99.90;;;;;;4443061;32;20433;-67
2021/06/27 02:02:41;;;;;;;10.10;7.87;;;17.30;99.90;;;;;;4441523;32;20193;-68
2021/06/27 02:05:09;;;;;;;11.50;8.33;;;17.30;99.90;;;;;;4442974;32;20146;-68
2021/06/27 02:07:38;;;;;;;12.43;7.90;;;17.20;99.90;;;;;;4441304;32;20191;-66
2021/06/27 02:10:11;;;;;;;11.10;8.20;;;17.20;99.90;;;;;;4442766;32;20139;-66
2021/06/27 02:12:39;;;;;;;10.67;8.60;;;17.20;99.90;;;;;;4442773;32;20151;-66
2021/06/27 02:15:08;;;;;;;10.57;8.13;;;17.20;99.90;;;;;;4426895;32;20421;-66
2021/06/27 02:17:37;;;;;;;12.33;8.70;;;17.20;99.90;;;;;;4441137;32;20147;-67
2021/06/27 02:20:06;;;;;;;13.53;8.60;;;17.20;99.90;;;;;;4441419;32;20169;-67
2021/06/27 02:22:33;;;;;;;10.70;8.17;;;17.20;99.90;;;;;;4442666;32;20169;-67
2021/06/27 02:25:00;;;;;;;12.00;8.60;;;17.10;99.90;;;;;;4442627;32;20395;-67
2021/06/27 02:27:27;;;;;;;11.73;8.60;;;17.10;99.90;;;;;;4442090;32;20444;-67
2021/06/27 02:29:54;;;;;;;11.80;8.37;;;17.10;99.90;;;;;;4440997;32;20138;-67
2021/06/27 02:32:22;;;;;;;13.20;8.13;;;17.10;99.90;;;;;;4442481;32;20537;-67
2021/06/27 02:34:49;;;;;;;10.73;8.37;;;17.10;99.90;;;;;;4442133;32;20161;-68
2021/06/27 02:37:16;;;;;;;11.63;8.30;;;17.00;99.90;;;;;;4440958;32;20143;-68
2021/06/27 02:39:43;;;;;;;10.93;8.23;;;17.00;99.90;;;;;;4441368;32;20222;-67
2021/06/27 02:42:10;;;;;;;11.07;8.20;;;17.10;99.90;;;;;;4440769;32;20146;-67
2021/06/27 02:44:37;;;;;;;10.30;7.63;;;17.00;99.90;;;;;;4440757;32;20299;-68
2021/06/27 02:47:04;;;;;;;11.83;8.67;;;17.00;99.90;;;;;;4440757;32;20157;-68
2021/06/27 02:49:31;;;;;;;11.70;8.20;;;17.00;99.90;;;;;;4442210;32;20177;-68
2021/06/27 02:51:58;;;;;;;11.10;7.77;;;17.00;99.90;;;;;;4440618;32;20159;-68
2021/06/27 02:54:24;;;;;;;12.27;8.07;;;17.10;99.90;;;;;;4440673;32;20161;-68
2021/06/27 02:56:51;;;;;;;11.53;8.30;;;17.10;99.90;;;;;;4440706;32;20222;-68
2021/06/27 02:59:18;;;;;;;9.97;7.90;;;17.10;99.90;;;;;;4442141;32;20161;-68
2021/06/27 03:01:45;;;;;;;11.07;7.90;;;17.10;99.90;;;;;;4441485;32;20188;-67
2021/06/27 03:04:12;;;;;;;11.60;8.47;;;17.10;99.90;;;;;;4441932;32;20192;-68
2021/06/27 03:06:39;;;;;;;9.97;7.87;;;17.10;99.90;;;;;;4440841;32;20150;-68
2021/06/27 03:09:06;;;;;;;11.73;8.30;;;17.10;99.90;;;;;;4442147;32;20158;-67
2021/06/27 03:11:33;;;;;;;10.70;8.10;;;17.20;99.90;;;;;;4441895;32;20390;-67
2021/06/27 03:14:00;;;;;;;10.47;8.00;;;17.20;99.90;;;;;;4439935;32;20369;-67
2021/06/27 03:16:27;;;;;;;10.27;8.10;;;17.20;99.90;;;;;;4440365;32;20142;-69
2021/06/27 03:18:53;;;;;;;12.13;7.80;;;17.20;99.90;;;;;;4440296;32;20424;-70
2021/06/27 03:21:20;;;;;;;10.63;7.87;;;17.20;99.90;;;;;;4440453;32;20183;-68
2021/06/27 03:23:47;;;;;;;12.63;8.10;;;17.20;99.90;;;;;;4440287;32;20142;-68
2021/06/27 03:26:14;;;;;;;10.47;7.70;;;17.20;99.90;;;;;;4440355;32;20158;-68
2021/06/27 03:28:44;;;;;;;11.30;8.17;;;17.30;99.90;;;;;;4441680;32;20146;-68
2021/06/27 03:31:10;;;;;;;13.67;8.60;;;17.30;99.90;;;;;;4441738;32;20202;-68
2021/06/27 03:33:37;;;;;;;13.23;8.50;;;17.30;99.90;;;;;;4440201;32;20226;-68
2021/06/27 03:36:05;;;;;;;10.87;7.60;;;17.30;99.90;;;;;;4441881;32;20205;-68
2021/06/27 03:38:58;;;;;;;12.10;8.27;;;17.40;99.90;;;;;;4441705;32;20186;-69
2021/06/27 03:41:22;;;;;;;12.77;8.40;;;17.40;99.90;;;;;;4441216;32;20473;-68
2021/06/27 03:43:49;;;;;;;10.80;8.07;;;17.50;99.90;;;;;;4439969;32;20169;-68
2021/06/27 03:46:16;;;;;;;11.47;7.40;;;17.60;99.90;;;;;;4439502;32;20161;-68
2021/06/27 03:48:44;;;;;;;11.57;7.57;;;17.60;99.90;;;;;;4440189;32;20134;-69
2021/06/27 03:51:11;;;;;;;11.17;8.00;;;17.60;99.90;;;;;;4439695;32;20172;-69
2021/06/27 03:53:38;;;;;;;12.63;8.17;;;17.60;99.90;;;;;;4441308;32;20384;-69
2021/06/27 03:56:05;;;;;;;11.57;7.60;;;17.60;99.90;;;;;;4439758;32;20143;-68
2021/06/27 03:58:32;;;;;;;11.77;7.90;;;17.60;99.90;;;;;;4435494;32;20568;-68
2021/06/27 04:00:58;;;;;;;10.47;8.03;;;17.50;99.90;;;;;;4433614;32;20163;-69
2021/06/27 04:03:25;;;;;;;10.23;7.70;;;17.60;99.90;;;;;;4430329;32;20499;-68
2021/06/27 04:05:52;;;;;;;10.47;7.37;;;17.80;99.90;;;;;;4423996;32;20231;-68
2021/06/27 04:08:19;;;;;;;11.67;7.40;;;17.90;99.90;;;;;;4425642;32;20143;-68
2021/06/27 04:10:46;;;;;;;9.00;6.87;;;18.00;99.90;;;;;;4426001;32;20151;-68
2021/06/27 04:13:16;;;;;;;9.83;7.10;;;18.00;99.90;;;;;;4423728;32;20146;-68
2021/06/27 04:15:43;;;;;;;10.50;7.07;;;18.10;99.90;;;;;;4424223;32;20233;-68
2021/06/27 04:18:10;;;;;;;10.53;7.63;;;18.20;99.90;;;;;;4425994;32;20138;-68
2021/06/27 04:20:37;;;;;;;12.27;8.40;;;18.30;99.90;;;;;;4424404;32;20170;-68
2021/06/27 04:23:05;;;;;;;12.00;8.30;;;18.30;99.90;;;;;;4425077;32;20527;-68
2021/06/27 04:25:33;;;;;;;10.53;7.83;;;18.40;99.90;;;;;;4424114;32;20182;-68
2021/06/27 04:28:00;;;;;;;12.47;8.53;;;18.30;99.90;;;;;;4425479;32;20408;-67
2021/06/27 04:30:27;;;;;;;11.50;8.10;;;18.20;99.90;;;;;;4424107;32;20398;-68
2021/06/27 04:32:54;;;;;;;12.73;8.97;;;18.40;99.90;;;;;;4424389;32;20360;-67
2021/06/27 04:35:21;;;;;;;10.73;8.10;;;18.40;99.90;;;;;;4411871;32;20162;-68
2021/06/27 04:37:48;;;;;;;10.83;7.40;;;18.40;99.90;;;;;;4425490;32;20158;-67
2021/06/27 04:40:15;;;;;;;10.43;7.40;;;18.50;99.90;;;;;;4423962;32;20154;-67
2021/06/27 04:42:42;;;;;;;11.73;7.40;;;18.50;99.90;;;;;;4424770;32;20140;-68
2021/06/27 04:45:09;;;;;;;9.77;7.70;;;18.50;99.90;;;;;;4425273;32;20139;-68
2021/06/27 04:47:38;;;;;;;9.70;7.20;;;18.50;99.90;;;;;;4424025;32;20147;-68
2021/06/27 04:50:06;;;;;;;11.93;8.30;;;18.70;99.90;;;;;;4423757;32;20143;-68
2021/06/27 04:52:34;;;;;;;11.17;7.97;;;18.60;99.90;;;;;;4425770;32;20233;-68
2021/06/27 04:55:03;;;;;;;10.90;7.97;;;18.70;99.90;;;;;;4423394;32;20157;-68
2021/06/27 04:57:31;;;;;;;9.97;6.77;;;18.80;99.90;;;;;;4425954;32;20139;-68
2021/06/27 04:59:58;;;;;;;10.50;7.40;;;19.00;99.90;;;;;;4427141;32;20472;-67
2021/06/27 05:02:25;;;;;;;12.10;7.33;;;19.10;99.90;;;;;;4427049;32;20181;-68
2021/06/27 05:04:52;;;;;;;10.47;7.20;;;19.10;99.90;;;;;;4426870;32;20170;-67
2021/06/27 05:07:18;;;;;;;11.07;8.10;;;19.10;99.90;;;;;;4428423;32;20138;-68
2021/06/27 05:09:45;;;;;;;10.70;7.50;;;19.00;99.90;;;;;;4426775;32;20147;-68
2021/06/27 05:12:12;;;;;;;13.37;6.80;;;18.90;99.90;;;;;;4426758;32;20166;-68
2021/06/27 05:14:39;;;;;;;8.90;6.50;;;18.90;99.90;;;;;;4426784;32;20397;-68
2021/06/27 05:17:06;;;;;;;9.37;6.67;;;19.10;99.90;;;;;;4430133;32;20218;-68
2021/06/27 05:19:33;;;;;;;9.77;6.77;;;19.30;99.90;;;;;;4436079;32;20219;-68
2021/06/27 05:22:00;;;;;;;10.93;7.07;;;19.50;99.90;;;;;;4428077;32;20441;-68
2021/06/27 05:24:27;;;;;;;9.77;6.57;;;19.50;99.90;;;;;;4426913;32;20191;-67
2021/06/27 05:26:53;;;;;;;9.53;6.10;;;19.50;99.90;;;;;;4428041;32;20249;-68
2021/06/27 05:29:20;;;;;;;10.60;6.80;;;19.60;99.90;;;;;;4426782;32;20189;-68
2021/06/27 05:31:47;;;;;;;8.53;6.43;;;19.70;99.90;;;;;;4427943;32;20140;-68
2021/06/27 05:34:14;;;;;;;8.37;6.10;;;19.80;99.90;;;;;;4426497;32;20143;-68
2021/06/27 05:36:41;;;;;;;8.57;6.70;;;19.90;99.90;;;;;;4427852;32;20205;-68
2021/06/27 05:39:10;;;;;;;8.93;6.60;;;20.00;99.90;;;;;;4426230;32;20143;-68
2021/06/27 05:41:38;;;;;;;9.33;6.43;;;20.10;99.90;;;;;;4426235;32;20199;-68
2021/06/27 05:44:06;;;;;;;7.83;5.90;;;20.10;99.90;;;;;;4427810;32;20185;-68
2021/06/27 05:46:34;;;;;;;7.20;5.70;;;20.20;99.90;;;;;;4427620;32;20174;-68
2021/06/27 05:49:05;;;;;;;7.13;5.00;;;20.30;99.90;;;;;;4426322;32;20189;-68
2021/06/27 05:51:36;;;;;;;9.40;5.47;;;20.30;99.90;;;;;;4427614;32;20448;-68
2021/06/27 05:54:04;;;;;;;9.73;5.57;;;20.30;99.90;;;;;;4427575;32;20170;-67
2021/06/27 05:56:31;;;;;;;8.33;6.00;;;20.40;99.90;;;;;;4425938;32;20146;-68
2021/06/27 05:58:58;;;;;;;7.23;5.60;;;20.40;99.90;;;;;;4426044;32;20135;-68
2021/06/27 06:01:25;;;;;;;6.80;5.37;;;20.50;99.90;;;;;;4426005;32;20198;-68
2021/06/27 06:03:52;;;;;;;8.13;5.50;;;20.60;99.90;;;;;;4425936;32;20143;-68
2021/06/27 06:06:19;;;;;;;7.87;5.03;;;20.80;99.90;;;;;;4426241;32;20195;-68
2021/06/27 06:08:46;;;;;;;9.93;5.60;;;20.80;99.90;;;;;;4425335;32;20151;-68
2021/06/27 06:11:15;;;;;;;5.63;4.87;;;20.80;99.90;;;;;;4427690;32;20245;-69
2021/06/27 06:13:43;;;;;;;7.37;5.10;;;20.80;99.90;;;;;;4426071;32;20138;-69
2021/06/27 06:16:12;;;;;;;7.23;4.90;;;20.90;99.90;;;;;;4426024;32;20499;-69
2021/06/27 06:18:42;;;;;;;7.83;5.13;;;20.90;99.90;;;;;;4426849;32;20135;-69
2021/06/27 06:21:10;;;;;;;8.17;5.90;;;21.00;99.90;;;;;;4427323;32;20453;-68
2021/06/27 06:23:37;;;;;;;8.10;5.60;;;21.10;99.90;;;;;;4426722;32;20477;-68
2021/06/27 06:26:05;;;;;;;7.53;5.17;;;21.20;99.90;;;;;;4427321;32;20251;-68
2021/06/27 06:28:32;;;;;;;8.73;5.30;;;21.30;99.90;;;;;;4425749;32;20176;-69
2021/06/27 06:31:00;;;;;;;7.83;5.47;;;21.40;99.90;;;;;;4425820;32;20169;-68
2021/06/27 06:33:27;;;;;;;6.80;5.60;;;21.50;99.90;;;;;;4425779;32;20193;-69
2021/06/27 06:35:54;;;;;;;7.70;5.53;;;21.50;99.90;;;;;;4433210;32;20208;-68
2021/06/27 06:38:21;;;;;;;7.77;5.50;;;21.70;99.90;;;;;;4441031;32;20142;-69
2021/06/27 06:40:48;;;;;;;8.90;6.20;;;21.70;99.90;;;;;;4438877;32;20449;-69
2021/06/27 06:43:15;;;;;;;8.37;6.57;;;21.80;99.90;;;;;;4425366;32;20189;-68
2021/06/27 06:45:42;;;;;;;8.90;6.70;;;21.80;99.90;;;;;;4427004;32;20548;-68
2021/06/27 06:48:09;;;;;;;8.83;6.87;;;21.60;99.90;;;;;;4424915;32;20169;-68
2021/06/27 06:50:36;;;;;;;8.23;6.40;;;21.40;99.90;;;;;;4426053;32;20192;-68
2021/06/27 06:53:04;;;;;;;7.93;5.80;;;21.50;99.90;;;;;;4425329;32;20142;-68
2021/06/27 06:55:31;;;;;;;12.13;6.80;;;21.60;99.90;;;;;;4427154;32;20421;-67
2021/06/27 06:57:58;;;;;;;9.07;6.43;;;21.60;99.90;;;;;;4425341;32;20382;-67
2021/06/27 07:00:25;;;;;;;8.67;6.70;;;21.40;99.90;;;;;;4426746;32;20221;-68
2021/06/27 07:02:52;;;;;;;8.73;6.63;;;21.40;99.90;;;;;;4425103;32;20143;-68
2021/06/27 07:05:19;;;;;;;8.00;6.33;;;21.40;99.90;;;;;;4425150;32;20333;-68
2021/06/27 07:07:45;;;;;;;9.17;6.03;;;21.60;99.90;;;;;;4426431;32;20158;-68
2021/06/27 07:10:13;;;;;;;11.07;6.23;;;21.80;99.90;;;;;;4425131;32;20163;-67
2021/06/27 07:12:42;;;;;;;9.97;6.17;;;21.90;99.90;;;;;;4424404;32;20161;-67
2021/06/27 07:15:10;;;;;;;8.77;6.03;;;21.80;99.90;;;;;;4423924;32;20185;-66
2021/06/27 07:17:37;;;;;;;8.00;6.30;;;21.80;99.90;;;;;;4430929;32;20694;-67
2021/06/27 07:20:10;;;;;;;7.23;5.30;;;21.70;99.90;;;;;;4435376;32;20197;-66
2021/06/27 07:22:36;;;;;;;7.10;5.73;;;21.60;99.90;;;;;;4436529;32;20158;-66
2021/06/27 07:25:07;;;;;;;8.40;6.63;;;21.80;99.90;;;;;;4436791;32;20219;-66
2021/06/27 07:27:34;;;;;;;10.17;6.70;;;21.70;99.90;;;;;;4430372;32;20213;-66
2021/06/27 07:30:02;;;;;;;9.17;6.57;;;21.80;99.90;;;;;;4426055;32;20200;-66
2021/06/27 07:32:29;;;;;;;9.53;6.80;;;21.70;99.90;;;;;;4426037;32;20197;-66
2021/06/27 07:34:56;;;;;;;12.20;6.40;;;21.80;99.90;;;;;;4425528;32;20154;-66
2021/06/27 07:37:41;;;;;;;9.93;6.97;;;21.90;99.90;;;;;;4426055;32;20186;-67
2021/06/27 07:40:09;;;;;;;9.80;7.33;;;21.80;99.90;;;;;;4425533;32;20220;-67
2021/06/27 07:42:36;;;;;;;9.67;6.70;;;21.80;99.90;;;;;;4426198;32;20174;-67
2021/06/27 07:45:04;;;;;;;13.33;7.70;;;21.80;99.90;;;;;;4428830;32;20146;-66
2021/06/27 07:47:31;;;;;;;9.83;7.53;;;21.80;99.90;;;;;;4426276;32;20592;-66
2021/06/27 07:49:58;;;;;;;14.00;7.33;;;21.70;99.90;;;;;;4422147;32;20549;-68
2021/06/27 07:52:25;;;;;;;8.33;6.83;;;21.60;99.90;;;;;;4425440;32;20534;-67
2021/06/27 07:54:52;;;;;;;10.77;6.67;;;21.90;99.90;;;;;;4433890;32;20225;-66
2021/06/27 07:57:22;;;;;;;10.93;7.03;;;22.10;99.90;;;;;;4421788;32;20167;-65
2021/06/27 07:59:49;;;;;;;11.30;7.53;;;22.10;99.90;;;;;;4423277;32;20435;-65
2021/06/27 08:02:16;;;;;;;11.60;6.95;;;22.20;99.90;;;;;;4435324;32;20424;-65
2021/06/27 08:04:43;;;;;;;7.97;6.17;;;22.30;99.90;;;;;;4439209;32;20518;-65
2021/06/27 08:07:10;;;;;;;9.67;7.30;;;22.50;99.90;;;;;;4441163;32;20396;-65
2021/06/27 08:09:37;;;;;;;8.03;6.30;;;22.50;99.90;;;;;;4439855;32;20134;-65
2021/06/27 08:12:05;;;;;;;9.33;6.50;;;22.50;99.90;;;;;;4439539;32;20500;-65
2021/06/27 08:14:32;;;;;;;9.70;6.40;;;22.50;99.90;;;;;;4440894;32;20209;-65
2021/06/27 08:16:58;;;;;;;9.40;6.87;;;22.80;99.90;;;;;;4439667;32;20139;-65
2021/06/27 08:19:25;;;;;;;8.18;6.80;;;23.00;99.90;;;;;;4439689;32;20453;-65
2021/06/27 08:21:52;;;;;;;9.03;6.67;;;23.00;99.90;;;;;;4441138;32;20183;-65
2021/06/27 08:24:19;;;;;;;9.30;6.70;;;23.00;99.90;;;;;;4441060;32;20191;-65
2021/06/27 08:26:46;;;;;;;8.60;6.20;;;22.90;99.90;;;;;;4439693;32;20147;-64
2021/06/27 08:29:13;;;;;;;9.17;6.27;;;22.90;99.90;;;;;;4440836;32;20131;-65
2021/06/27 08:31:39;;;;;;;8.30;5.70;;;23.50;99.90;;;;;;4439060;32;20154;-65
2021/06/27 08:34:06;;;;;;;6.45;5.03;;;24.30;99.90;;;;;;4438872;32;20224;-66
2021/06/27 08:36:33;;;;;;;5.93;5.10;;;24.80;97.80;;;;;;4436762;32;20143;-65
2021/06/27 08:39:00;;;;;;;6.07;4.62;;;25.20;96.60;;;;;;4437021;32;20426;-64
2021/06/27 08:41:28;;;;;;;5.00;4.20;;;25.40;92.80;;;;;;4435080;32;20213;-65
2021/06/27 08:43:57;;;;;;;5.10;3.70;;;26.00;90.50;;;;;;4424392;32;20166;-65
2021/06/27 08:46:24;;;;;;;4.50;3.28;;;26.50;81.60;;;;;;4424898;32;20242;-64
2021/06/27 08:48:53;;;;;;;5.05;3.50;;;26.10;77.10;;;;;;4424826;32;20234;-63
2021/06/27 08:51:21;;;;;;;9.43;3.55;;;26.60;76.40;;;;;;4424283;32;20223;-64
2021/06/27 08:53:51;;;;;;;4.20;3.80;;;26.20;76.10;;;;;;4411587;32;20150;-66
2021/06/27 08:56:18;;;;;;;4.53;3.35;;;26.30;75.30;;;;;;4424889;32;20451;-65
2021/06/27 08:58:46;;;;;;;7.68;3.80;;;26.90;77.60;;;;;;4425335;32;20213;-65
2021/06/27 09:01:18;;;;;;;5.32;3.87;;;26.90;70.60;;;;;;4425169;32;20178;-65
2021/06/27 09:03:46;;;;;;;4.60;3.97;;;27.20;70.80;;;;;;4425412;32;20189;-66
2021/06/27 09:06:30;;;;;;;5.03;4.25;;;27.50;73.00;;;;;;4425299;32;20167;-65
2021/06/27 09:09:20;;;;;;;4.97;3.65;;;26.70;71.20;;;;;;4425947;32;20491;-66
2021/06/27 09:12:01;;;;;;;4.82;3.80;;;27.00;73.60;;;;;;4423725;32;20184;-66
2021/06/27 09:14:38;;;;;;;4.97;4.10;;;27.50;71.10;;;;;;4423012;32;20203;-65
2021/06/27 09:17:06;;;;;;;7.72;4.25;;;27.50;72.20;;;;;;4425454;32;20465;-66
2021/06/27 09:19:54;;;;;;;5.90;4.30;;;27.80;68.80;;;;;;4408961;32;20170;-66
2021/06/27 09:22:22;;;;;;;8.18;4.35;;;27.70;70.00;;;;;;4410361;32;20179;-66
2021/06/27 09:24:49;;;;;;;7.22;4.53;;;28.00;71.90;;;;;;4409757;32;20150;-66
2021/06/27 09:27:16;;;;;;;5.03;4.30;;;27.30;69.70;;;;;;4424643;32;20204;-65
2021/06/27 09:29:44;;;;;;;6.37;4.43;;;26.80;71.90;;;;;;4423273;32;20199;-66
2021/06/27 09:32:19;;;;;;;6.07;4.87;;;26.50;74.10;;;;;;4423141;32;20158;-66
2021/06/27 09:34:46;;;;;;;6.28;4.47;;;26.10;75.10;;;;;;4424205;32;20425;-66
2021/06/27 09:37:15;;;;;;;6.25;4.80;;;25.70;74.00;;;;;;4425359;32;20188;-65
2021/06/27 09:40:02;;;;;;;7.20;4.28;;;26.30;75.10;;;;;;4425022;32;20161;-66
2021/06/27 09:42:30;;;;;;;5.32;4.72;;;26.70;74.50;;;;;;4423978;32;20161;-65
2021/06/27 09:45:10;;;;;;;6.47;4.57;;;26.50;73.40;;;;;;4426723;32;20559;-66
2021/06/27 09:47:37;;;;;;;5.05;4.55;;;26.70;77.10;;;;;;4427965;32;20139;-66
2021/06/27 09:50:30;;;;;;;4.82;4.30;;;27.00;74.20;;;;;;4427559;32;20406;-66
2021/06/27 09:53:00;;;;;;;5.55;3.47;;;27.30;73.10;;;;;;4427848;32;20154;-65
2021/06/27 09:55:27;;;;;;;4.82;3.55;;;27.50;67.80;;;;;;4427937;32;20139;-65
2021/06/27 09:58:13;;;;;;;4.20;3.50;;;27.70;68.00;;;;;;4427737;32;20499;-65
2021/06/27 10:00:40;;;;;;;5.75;3.80;;;28.10;67.90;;;;;;4425956;32;20151;-66
2021/06/27 10:03:10;;;;;;;5.00;3.55;;;28.40;63.90;;;;;;4426594;32;20318;-64
2021/06/27 10:05:37;;;;;;;4.55;3.58;;;28.60;66.40;;;;;;4427302;32;20158;-64
2021/06/27 10:08:04;;;;;;;4.45;3.33;;;28.20;62.70;;;;;;4426438;32;20139;-64
2021/06/27 10:10:31;;;;;;;5.45;3.05;;;28.10;63.10;;;;;;4425705;32;20419;-64
2021/06/27 10:13:00;;;;;;;4.32;3.20;;;28.00;59.50;;;;;;4425626;32;20147;-64
2021/06/27 10:15:46;;;;;;;5.25;3.10;;;27.70;62.70;;;;;;4427318;32;20139;-65
2021/06/27 10:18:13;;;;;;;5.32;3.30;;;28.10;63.60;;;;;;4425792;32;20147;-65
2021/06/27 10:20:42;;;;;;;5.70;3.35;;;28.20;60.90;;;;;;4426405;32;20193;-65
2021/06/27 10:23:09;;;;;;;5.57;3.50;;;28.70;61.80;;;;;;4426284;32;20169;-65
2021/06/27 10:25:36;;;;;;;6.53;3.53;;;29.00;59.40;;;;;;4418938;32;20185;-65
2021/06/27 10:28:03;;;;;;;4.45;3.30;;;29.40;62.60;;;;;;4427124;32;20217;-65
2021/06/27 10:30:34;;;;;;;3.33;3.00;;;29.60;58.80;;;;;;4425144;32;20419;-66
2021/06/27 10:33:06;;;;;;;4.95;2.90;;;29.60;57.40;;;;;;4427457;32;20202;-65
2021/06/27 10:35:33;;;;;;;5.87;2.80;;;29.90;57.90;;;;;;4426722;32;20138;-65
2021/06/27 10:38:05;;;;;;;3.75;2.67;;;29.80;56.70;;;;;;4423056;32;20170;-65
2021/06/27 10:41:02;;;;;;;4.95;2.75;;;30.30;55.30;;;;;;4425446;32;20429;-65
2021/06/27 10:43:59;;;;;;;3.67;2.70;;;30.30;54.80;;;;;;4349357;33;20156;-64
2021/06/27 10:46:43;;;;;;;4.62;2.60;;;30.20;53.50;;;;;;4349634;33;20238;-64
2021/06/27 10:49:33;;;;;;;2.50;2.25;;;30.10;52.10;;;;;;4349709;33;20199;-65
2021/06/27 10:52:15;;;;;;;3.65;2.70;;;29.50;51.50;;;;;;4347258;33;20165;-65
2021/06/27 10:55:03;;;;;;;3.80;2.67;;;29.70;54.10;;;;;;4349431;33;20231;-64
2021/06/27 10:58:00;;;;;;;4.97;2.92;;;29.40;54.70;;;;;;4349703;33;20534;-65
2021/06/27 11:00:53;;;;;;;3.60;2.28;;;29.70;56.10;;;;;;4349817;33;20207;-63
2021/06/27 11:03:28;;;;;;;4.72;2.62;;;30.70;52.20;;;;;;4348562;33;20190;-66
2021/06/27 11:05:57;;;;;;;3.50;2.20;;;30.50;52.20;;;;;;4347909;33;20167;-64
2021/06/27 11:08:34;;;;;;;5.32;2.50;;;30.60;52.00;;;;;;4347588;33;20636;-65
2021/06/27 11:11:09;;;;;;;4.87;2.42;;;30.60;53.10;;;;;;4347017;33;20445;-66
2021/06/27 11:13:38;;;;;;;3.95;2.30;;;31.40;52.40;;;;;;4348345;33;20435;-64
2021/06/27 11:16:07;;;;;;;2.83;2.30;;;31.60;49.50;;;;;;4345713;33;20600;-65
2021/06/27 11:18:49;;;;;;;3.08;2.20;;;30.80;50.20;;;;;;4346456;33;20168;-65
2021/06/27 11:21:21;;;;;;;3.97;2.20;;;31.40;51.20;;;;;;4419389;32;20240;-64
2021/06/27 11:23:55;;;;;;;3.12;2.40;;;31.40;48.50;;;;;;4424092;32;20164;-65
2021/06/27 11:26:48;;;;;;;2.90;2.30;;;31.50;48.30;;;;;;4423885;32;20489;-64
2021/06/27 11:29:21;;;;;;;3.22;2.40;;;31.00;50.20;;;;;;4423874;32;20555;-64
2021/06/27 11:32:15;;;;;;;6.72;2.25;;;30.90;47.80;;;;;;4425480;32;20143;-65
2021/06/27 11:34:52;;;;;;;2.83;2.30;;;30.50;49.50;;;;;;4396584;32;20159;-66
2021/06/27 11:37:18;;;;;;;2.90;2.58;;;30.10;50.50;;;;;;4426118;32;20158;-64
2021/06/27 11:39:55;;;;;;;3.65;2.40;;;30.20;50.60;;;;;;4426032;32;20182;-64
2021/06/27 11:42:22;;;;;;;2.58;2.30;;;31.00;51.40;;;;;;4426238;32;20146;-64
2021/06/27 11:45:07;;;;;;;3.60;2.30;;;31.70;48.50;;;;;;4426107;32;20400;-64
2021/06/27 11:48:04;;;;;;;3.12;2.40;;;31.40;47.80;;;;;;4426389;32;20151;-64
2021/06/27 11:50:33;;;;;;;4.20;2.33;;;31.10;48.70;;;;;;4425185;32;20170;-65
2021/06/27 11:53:01;;;;;;;4.00;2.50;;;30.70;49.60;;;;;;4425829;32;20147;-64
2021/06/27 11:55:31;;;;;;;3.05;2.15;;;30.50;49.80;;;;;;4425847;32;20143;-65
2021/06/27 11:58:00;;;;;;;5.75;2.15;;;30.50;49.40;;;;;;4425838;32;20155;-65
2021/06/27 12:00:41;;;;;;;4.25;2.47;;;30.90;49.90;;;;;;4421136;32;20177;-64
2021/06/27 12:03:11;;;;;;;3.33;2.37;;;30.00;49.90;;;;;;4422681;32;20193;-64
2021/06/27 12:05:40;;;;;;;4.25;2.25;;;30.60;48.70;;;;;;4425212;32;20139;-64
2021/06/27 12:08:11;;;;;;;4.53;2.80;;;30.00;49.40;;;;;;4425142;32;20174;-64
2021/06/27 12:10:39;;;;;;;5.93;2.20;;;30.20;51.20;;;;;;4425816;32;20143;-64
2021/06/27 12:13:08;;;;;;;3.45;2.20;;;31.10;47.60;;;;;;4425819;32;20205;-65
2021/06/27 12:15:43;;;;;;;5.70;2.58;;;30.10;48.50;;;;;;4425294;32;20219;-67
2021/06/27 12:18:14;;;;;;;3.92;2.53;;;30.40;50.20;;;;;;4425944;32;20143;-66
2021/06/27 12:20:53;;;;;;;4.60;2.37;;;31.50;48.40;;;;;;4425862;32;20420;-65
2021/06/27 12:23:33;;;;;;;4.15;2.58;;;32.00;49.70;;;;;;4426326;32;20208;-65
2021/06/27 12:26:01;;;;;;;6.97;2.50;;;32.50;48.10;;;;;;4425591;32;20386;-66
2021/06/27 12:28:44;;;;;;;3.47;2.30;;;32.30;46.30;;;;;;4424747;32;20429;-65
2021/06/27 12:31:20;;;;;;;3.20;2.28;;;32.30;45.10;;;;;;4423880;32;20499;-65
2021/06/27 12:33:52;;;;;;;5.00;2.60;;;32.20;46.80;;;;;;4425985;32;20358;-65
2021/06/27 12:36:29;;;;;;;3.42;2.62;;;32.00;46.40;;;;;;4425859;32;20143;-65
2021/06/27 12:39:01;;;;;;;3.65;2.60;;;31.90;46.80;;;;;;4424108;32;20230;-66
2021/06/27 12:41:30;;;;;;;4.47;2.53;;;31.70;44.80;;;;;;4424886;32;20203;-65
2021/06/27 12:44:04;;;;;;;2.60;2.20;;;31.70;44.20;;;;;;4425298;32;20433;-65
2021/06/27 12:46:53;;;;;;;2.92;2.55;;;31.50;44.00;;;;;;4425281;32;20167;-65
2021/06/27 12:49:27;;;;;;;4.20;2.40;;;31.40;45.40;;;;;;4425444;32;20206;-64
2021/06/27 12:52:02;;;;;;;3.00;1.92;;;31.90;45.50;;;;;;4423976;32;20199;-65
2021/06/27 12:54:37;;;;;;;3.67;2.40;;;32.70;43.40;;;;;;4425344;32;20161;-65
2021/06/27 12:57:13;;;;;;;4.53;2.33;;;32.80;43.40;;;;;;4425389;32;20514;-65